createdAt,value
2022-08-22T00:01:16.890Z,20.06
2022-08-22T00:02:54.637Z,20.21
2022-08-22T00:03:56.459Z,19.95
2022-08-22T00:06:32.161Z,19.73
2022-08-22T00:09:23.198Z,19.89
2022-08-22T00:11:59.284Z,19.91
2022-08-22T00:14:38.257Z,19.88
2022-08-22T00:17:23.486Z,19.81
2022-08-22T00:19:56.987Z,19.82
2022-08-22T00:22:32.959Z,19.88
2022-08-22T00:25:28.169Z,19.78
2022-08-22T00:28:00.354Z,19.88
2022-08-22T00:30:30.367Z,19.84
2022-08-22T00:33:03.619Z,19.82
2022-08-22T00:35:41.718Z,19.72
2022-08-22T00:38:18.422Z,19.63
2022-08-22T00:40:58.329Z,19.72
2022-08-22T00:44:01.937Z,19.78
2022-08-22T00:47:02.405Z,19.74
2022-08-22T00:50:02.552Z,19.71
2022-08-22T00:52:48.728Z,19.80
2022-08-22T00:55:39.841Z,19.78
2022-08-22T00:58:27.708Z,19.84
2022-08-22T01:01:00.883Z,19.79
2022-08-22T01:03:54.747Z,19.90
2022-08-22T01:06:29.693Z,19.68
2022-08-22T01:09:05.818Z,19.53
2022-08-22T01:12:06.531Z,19.63
2022-08-22T01:14:44.177Z,19.50
2022-08-22T01:17:56.686Z,19.73
2022-08-22T01:21:09.409Z,19.73
2022-08-22T01:24:14.564Z,19.56
2022-08-22T01:27:27.349Z,19.73
2022-08-22T01:30:19.338Z,19.62
2022-08-22T01:33:33.217Z,19.69
2022-08-22T01:36:48.875Z,19.83
2022-08-22T01:39:46.522Z,19.91
2022-08-22T01:42:59.092Z,19.96
2022-08-22T01:45:58.453Z,19.73
2022-08-22T01:48:36.953Z,19.61
2022-08-22T01:51:14.812Z,19.83
2022-08-22T01:53:49.408Z,19.80
2022-08-22T01:56:22.709Z,19.59
2022-08-22T01:58:57.239Z,19.84
2022-08-22T02:01:41.317Z,19.82
2022-08-22T02:04:17.292Z,19.77
2022-08-22T02:07:01.866Z,19.75
2022-08-22T02:09:39.765Z,19.79
2022-08-22T02:12:28.004Z,19.64
2022-08-22T02:15:07.029Z,19.71
2022-08-22T02:17:49.196Z,19.32
2022-08-22T02:20:24.733Z,19.65
2022-08-22T02:22:58.528Z,19.64
2022-08-22T02:25:30.296Z,19.63
2022-08-22T02:28:08.158Z,19.43
2022-08-22T02:30:48.836Z,19.77
2022-08-22T02:33:26.940Z,19.51
2022-08-22T02:36:00.941Z,19.51
2022-08-22T02:38:34.803Z,19.64
2022-08-22T02:41:11.996Z,19.25
2022-08-22T02:43:49.677Z,19.45
2022-08-22T02:46:28.397Z,19.58
2022-08-22T02:49:07.578Z,19.76
2022-08-22T02:51:45.452Z,19.54
2022-08-22T02:54:23.579Z,19.28
2022-08-22T02:56:58.791Z,19.31
2022-08-22T02:59:36.674Z,19.32
2022-08-22T03:02:29.719Z,18.93
2022-08-22T03:05:02.100Z,19.09
2022-08-22T03:07:41.054Z,19.08
2022-08-22T03:10:21.326Z,19.10
2022-08-22T03:12:59.230Z,18.70
2022-08-22T03:15:35.372Z,19.29
2022-08-22T03:18:15.390Z,19.01
2022-08-22T03:20:48.369Z,19.17
2022-08-22T03:23:29.276Z,18.84
2022-08-22T03:26:07.393Z,19.08
2022-08-22T03:28:59.227Z,19.11
2022-08-22T03:31:31.558Z,19.17
2022-08-22T03:34:22.394Z,19.06
2022-08-22T03:37:03.963Z,19.24
2022-08-22T03:39:49.839Z,19.18
2022-08-22T03:42:48.410Z,19.13
2022-08-22T03:45:41.987Z,19.07
2022-08-22T03:48:51.202Z,19.25
2022-08-22T03:51:42.156Z,19.21
2022-08-22T03:54:55.966Z,19.16
2022-08-22T03:58:00.448Z,19.34
2022-08-22T04:00:52.428Z,19.33
2022-08-22T04:04:09.868Z,19.36
2022-08-22T04:07:03.016Z,19.35
2022-08-22T04:10:11.985Z,19.34
2022-08-22T04:13:11.210Z,19.53
2022-08-22T04:16:05.110Z,19.25
2022-08-22T04:19:17.438Z,19.76
2022-08-22T04:22:13.387Z,20.46
2022-08-22T04:24:53.916Z,21.15
2022-08-22T04:27:28.999Z,21.50
2022-08-22T04:30:02.040Z,21.73
2022-08-22T04:32:36.535Z,21.85
2022-08-22T04:35:09.249Z,21.47
2022-08-22T04:37:48.564Z,20.82
2022-08-22T04:40:21.876Z,20.54
2022-08-22T04:42:54.268Z,20.49
2022-08-22T04:45:30.816Z,21.29
2022-08-22T04:48:07.158Z,20.98
2022-08-22T04:50:43.119Z,21.66
2022-08-22T04:53:30.037Z,21.86
2022-08-22T04:56:08.874Z,21.80
2022-08-22T04:58:47.822Z,21.34
2022-08-22T05:01:19.230Z,21.01
2022-08-22T05:03:54.052Z,21.39
2022-08-22T05:06:26.656Z,21.83
2022-08-22T05:09:00.836Z,21.78
2022-08-22T05:11:30.780Z,22.32
2022-08-22T05:14:04.127Z,22.56
2022-08-22T05:16:43.514Z,23.64
2022-08-22T05:19:22.972Z,23.82
2022-08-22T05:21:56.616Z,22.38
2022-08-22T05:24:32.094Z,24.00
2022-08-22T05:27:06.204Z,24.30
2022-08-22T05:29:34.635Z,24.51
2022-08-22T05:32:06.680Z,23.72
2022-08-22T05:34:39.348Z,23.33
2022-08-22T05:37:12.829Z,22.72
2022-08-22T05:39:47.172Z,22.27
2022-08-22T05:42:28.731Z,21.90
2022-08-22T05:44:57.291Z,21.99
2022-08-22T05:47:28.856Z,22.12
2022-08-22T05:50:02.821Z,22.28
2022-08-22T05:52:43.901Z,22.67
2022-08-22T05:55:29.563Z,23.53
2022-08-22T05:58:20.708Z,24.24
2022-08-22T06:00:54.126Z,24.16
2022-08-22T06:03:32.353Z,24.57
2022-08-22T06:06:08.051Z,24.99
2022-08-22T06:08:40.040Z,25.13
2022-08-22T06:11:17.960Z,25.77
2022-08-22T06:13:56.084Z,26.65
2022-08-22T06:16:33.225Z,26.95
2022-08-22T06:19:01.705Z,26.94
2022-08-22T06:21:39.157Z,26.42
2022-08-22T06:24:10.391Z,26.75
2022-08-22T06:26:48.219Z,26.96
2022-08-22T06:29:29.628Z,26.67
2022-08-22T06:31:58.915Z,27.06
2022-08-22T06:34:30.168Z,26.37
2022-08-22T06:37:03.817Z,24.59
2022-08-22T06:39:34.880Z,24.51
2022-08-22T06:42:11.157Z,24.28
2022-08-22T06:44:46.333Z,23.58
2022-08-22T06:47:19.130Z,23.53
2022-08-22T06:49:47.633Z,23.29
2022-08-22T06:52:23.358Z,22.98
2022-08-22T06:54:59.178Z,22.88
2022-08-22T06:57:33.729Z,22.79
2022-08-22T07:00:05.212Z,22.90
2022-08-22T07:02:37.850Z,22.87
2022-08-22T07:05:07.902Z,22.97
2022-08-22T07:07:37.381Z,22.69
2022-08-22T07:10:06.545Z,22.49
2022-08-22T07:12:39.113Z,22.29
2022-08-22T07:15:13.611Z,22.27
2022-08-22T07:17:50.696Z,22.34
2022-08-22T07:20:25.535Z,22.15
2022-08-22T07:22:56.310Z,22.97
2022-08-22T07:25:25.492Z,23.63
2022-08-22T07:28:07.505Z,23.58
2022-08-22T07:30:54.017Z,22.96
2022-08-22T07:33:40.208Z,22.95
2022-08-22T07:36:23.195Z,23.56
2022-08-22T07:39:21.545Z,23.42
2022-08-22T07:42:02.348Z,24.40
2022-08-22T07:44:39.546Z,24.80
2022-08-22T07:47:11.940Z,25.95
2022-08-22T07:49:50.613Z,26.77
2022-08-22T07:52:20.264Z,26.67
2022-08-22T07:54:52.769Z,27.60
2022-08-22T07:57:25.703Z,28.20
2022-08-22T07:59:57.544Z,28.78
2022-08-22T08:02:26.558Z,29.39
2022-08-22T08:04:57.759Z,29.93
2022-08-22T08:07:29.198Z,30.24
2022-08-22T08:10:03.060Z,29.33
2022-08-22T08:12:33.988Z,28.25
2022-08-22T08:15:07.213Z,26.84
2022-08-22T08:17:38.007Z,26.33
2022-08-22T08:20:11.247Z,25.80
2022-08-22T08:22:41.400Z,27.16
2022-08-22T08:25:10.141Z,27.62
2022-08-22T08:27:58.428Z,26.41
2022-08-22T08:30:44.164Z,26.14
2022-08-22T08:33:25.156Z,26.09
2022-08-22T08:36:02.881Z,27.27
2022-08-22T08:38:37.039Z,27.65
2022-08-22T08:41:37.553Z,27.05
2022-08-22T08:44:17.081Z,27.99
2022-08-22T08:47:16.225Z,28.75
2022-08-22T08:50:01.071Z,27.90
2022-08-22T08:52:58.482Z,26.82
2022-08-22T08:55:44.123Z,26.48
2022-08-22T08:58:33.758Z,27.85
2022-08-22T09:01:19.532Z,28.01
2022-08-22T09:04:32.617Z,28.17
2022-08-22T09:07:33.193Z,28.58
2022-08-22T09:10:19.894Z,29.73
2022-08-22T09:13:13.098Z,29.86
2022-08-22T09:16:04.870Z,29.01
2022-08-22T09:19:02.996Z,27.73
2022-08-22T09:22:18.267Z,27.96
2022-08-22T09:25:16.788Z,29.46
2022-08-22T09:27:50.262Z,29.38
2022-08-22T09:30:27.642Z,30.16
2022-08-22T09:33:03.534Z,30.35
2022-08-22T09:35:42.446Z,30.25
2022-08-22T09:38:39.557Z,30.64
2022-08-22T09:41:29.710Z,30.39
2022-08-22T09:44:23.640Z,29.21
2022-08-22T09:47:04.563Z,29.74
2022-08-22T09:49:49.750Z,30.22
2022-08-22T09:52:46.143Z,31.13
2022-08-22T09:55:35.683Z,31.25
2022-08-22T09:58:14.698Z,30.45
2022-08-22T10:00:53.768Z,29.06
2022-08-22T10:03:35.217Z,30.11
2022-08-22T10:06:14.424Z,30.12
2022-08-22T10:08:49.474Z,29.41
2022-08-22T10:11:26.860Z,30.04
2022-08-22T10:14:03.423Z,29.39
2022-08-22T10:16:44.569Z,28.86
2022-08-22T10:19:19.679Z,29.15
2022-08-22T10:22:17.061Z,29.78
2022-08-22T10:24:51.598Z,29.80
2022-08-22T10:27:33.729Z,30.54
2022-08-22T10:30:13.172Z,30.89
2022-08-22T10:32:45.821Z,31.57
2022-08-22T10:35:27.671Z,31.81
2022-08-22T10:38:00.696Z,31.41
2022-08-22T10:40:33.448Z,31.11
2022-08-22T10:43:12.285Z,30.83
2022-08-22T10:45:44.734Z,31.77
2022-08-22T10:48:28.408Z,30.96
2022-08-22T10:51:04.389Z,30.49
2022-08-22T10:53:53.150Z,29.98
2022-08-22T10:56:28.568Z,30.80
2022-08-22T10:59:04.502Z,31.84
2022-08-22T11:01:41.577Z,32.58
2022-08-22T11:04:18.341Z,32.21
2022-08-22T11:06:52.206Z,31.59
2022-08-22T11:09:30.280Z,32.55
2022-08-22T11:12:07.856Z,31.10
2022-08-22T11:15:08.739Z,30.28
2022-08-22T11:18:25.226Z,29.25
2022-08-22T11:21:01.895Z,28.76
2022-08-22T11:23:41.800Z,28.97
2022-08-22T11:26:33.717Z,28.63
2022-08-22T11:29:36.304Z,28.61
2022-08-22T11:32:16.967Z,29.29
2022-08-22T11:34:57.139Z,28.75
2022-08-22T11:37:44.895Z,28.26
2022-08-22T11:40:34.366Z,27.64
2022-08-22T11:43:17.989Z,26.84
2022-08-22T11:45:52.378Z,27.02
2022-08-22T11:48:26.880Z,27.04
2022-08-22T11:51:13.214Z,26.90
2022-08-22T11:53:47.821Z,27.10
2022-08-22T11:56:25.223Z,27.64
2022-08-22T11:58:59.303Z,29.69
2022-08-22T12:01:39.546Z,30.86
2022-08-22T12:04:16.994Z,30.91
2022-08-22T12:06:59.101Z,31.35
2022-08-22T12:09:55.144Z,31.89
2022-08-22T12:12:37.179Z,32.67
2022-08-22T12:15:12.393Z,32.54
2022-08-22T12:18:19.970Z,30.41
2022-08-22T12:21:27.988Z,29.84
2022-08-22T12:24:27.723Z,30.82
2022-08-22T12:27:28.475Z,30.37
2022-08-22T12:30:06.104Z,29.27
2022-08-22T12:33:13.039Z,28.55
2022-08-22T12:35:55.972Z,28.66
2022-08-22T12:38:40.326Z,28.27
2022-08-22T12:41:49.119Z,27.74
2022-08-22T12:44:32.061Z,27.91
2022-08-22T12:47:14.831Z,28.00
2022-08-22T12:50:06.481Z,28.17
2022-08-22T12:52:57.903Z,28.46
2022-08-22T12:55:42.013Z,28.10
2022-08-22T12:58:22.226Z,28.25
2022-08-22T13:00:53.216Z,28.31
2022-08-22T13:03:26.275Z,28.22
2022-08-22T13:05:59.762Z,28.28
2022-08-22T13:08:32.235Z,27.94
2022-08-22T13:11:03.035Z,28.00
2022-08-22T13:13:38.693Z,27.82
2022-08-22T13:16:11.761Z,27.66
2022-08-22T13:18:53.726Z,27.47
2022-08-22T13:21:27.549Z,27.50
2022-08-22T13:24:04.976Z,26.71
2022-08-22T13:26:46.363Z,25.25
2022-08-22T13:29:26.121Z,24.66
2022-08-22T13:32:01.947Z,24.13
2022-08-22T13:34:39.975Z,24.02
2022-08-22T13:37:16.427Z,23.88
2022-08-22T13:39:48.937Z,24.05
2022-08-22T13:42:30.562Z,24.19
2022-08-22T13:45:04.473Z,24.19
2022-08-22T13:47:46.309Z,23.98
2022-08-22T13:50:21.009Z,23.46
2022-08-22T13:52:55.204Z,21.61
2022-08-22T13:55:29.452Z,19.97
2022-08-22T13:58:07.567Z,19.77
2022-08-22T14:01:08.828Z,19.08
2022-08-22T19:09:45.338Z,19.93
2022-08-22T19:12:41.737Z,19.97
2022-08-22T19:15:32.885Z,20.04
2022-08-22T19:18:23.874Z,20.11
2022-08-22T19:21:34.115Z,20.07
2022-08-22T19:24:02.846Z,20.13
2022-08-22T19:26:36.100Z,19.95
2022-08-22T19:29:10.738Z,19.77
2022-08-22T19:32:02.033Z,19.75
2022-08-22T19:34:46.892Z,19.78
2022-08-22T19:37:31.762Z,19.67
2022-08-22T19:40:08.142Z,19.79
2022-08-22T19:42:40.172Z,19.81
2022-08-22T19:45:21.114Z,20.10
2022-08-22T19:48:00.629Z,20.23
2022-08-22T19:50:34.369Z,20.21
2022-08-22T19:53:24.420Z,20.30
2022-08-22T19:56:08.966Z,20.30
2022-08-22T19:58:53.612Z,20.34
2022-08-22T20:01:50.179Z,20.43
2022-08-22T20:04:38.891Z,20.52
2022-08-22T20:07:17.703Z,20.53
2022-08-22T20:09:53.412Z,20.58
2022-08-22T20:12:33.319Z,20.53
2022-08-22T20:15:16.359Z,20.50
2022-08-22T20:18:11.246Z,20.58
2022-08-22T20:20:55.217Z,20.64
2022-08-22T20:23:29.206Z,20.65
2022-08-22T20:25:58.093Z,20.61
2022-08-22T20:28:35.604Z,20.65
2022-08-22T20:31:22.051Z,20.71
2022-08-22T20:33:54.817Z,20.69
2022-08-22T20:36:28.845Z,20.69
2022-08-22T20:39:01.364Z,20.80
2022-08-22T20:41:35.561Z,20.89
2022-08-22T20:44:12.295Z,20.97
2022-08-22T20:46:55.218Z,20.58
2022-08-22T20:49:28.768Z,20.82
